sensor_id;sensor_type;location;lat;lon;timestamp;temperature;humidity
17992;DHT22;9121;50.926;5.340;2022-12-07T00:01:26;6.00;99.90
17992;DHT22;9121;50.926;5.340;2022-12-07T00:03:55;5.90;99.90
17992;DHT22;9121;50.926;5.340;2022-12-07T00:06:26;5.90;99.90
17992;DHT22;9121;50.926;5.340;2022-12-07T00:08:53;5.90;99.90
17992;DHT22;9121;50.926;5.340;2022-12-07T00:11:22;5.90;99.90
17992;DHT22;9121;50.926;5.340;2022-12-07T00:13:53;5.90;99.90
17992;DHT22;9121;50.926;5.340;2022-12-07T00:16:22;5.90;99.90
17992;DHT22;9121;50.926;5.340;2022-12-07T00:18:49;5.90;99.90
17992;DHT22;9121;50.926;5.340;2022-12-07T00:21:18;5.90;99.90
17992;DHT22;9121;50.926;5.340;2022-12-07T00:23:46;5.90;99.90
17992;DHT22;9121;50.926;5.340;2022-12-07T00:26:16;5.90;99.90
17992;DHT22;9121;50.926;5.340;2022-12-07T00:28:45;5.90;99.90
17992;DHT22;9121;50.926;5.340;2022-12-07T00:31:15;5.90;99.90
17992;DHT22;9121;50.926;5.340;2022-12-07T00:33:42;5.80;99.90
17992;DHT22;9121;50.926;5.340;2022-12-07T00:36:11;5.80;99.90
17992;DHT22;9121;50.926;5.340;2022-12-07T00:38:39;5.80;99.90
17992;DHT22;9121;50.926;5.340;2022-12-07T00:41:10;5.80;99.90
17992;DHT22;9121;50.926;5.340;2022-12-07T00:43:37;5.70;99.90
17992;DHT22;9121;50.926;5.340;2022-12-07T00:46:05;5.80;99.90
17992;DHT22;9121;50.926;5.340;2022-12-07T00:48:33;5.90;99.90
17992;DHT22;9121;50.926;5.340;2022-12-07T00:51:01;5.80;99.90
17992;DHT22;9121;50.926;5.340;2022-12-07T00:53:28;5.80;99.90
17992;DHT22;9121;50.926;5.340;2022-12-07T00:55:55;5.90;99.90
17992;DHT22;9121;50.926;5.340;2022-12-07T00:58:22;5.80;99.90
17992;DHT22;9121;50.926;5.340;2022-12-07T01:00:50;5.80;99.90
17992;DHT22;9121;50.926;5.340;2022-12-07T01:03:17;5.80;99.90
17992;DHT22;9121;50.926;5.340;2022-12-07T01:05:51;5.90;99.90
17992;DHT22;9121;50.926;5.340;2022-12-07T01:08:19;5.90;99.90
17992;DHT22;9121;50.926;5.340;2022-12-07T01:10:46;5.80;99.90
17992;DHT22;9121;50.926;5.340;2022-12-07T01:13:14;5.80;99.90
17992;DHT22;9121;50.926;5.340;2022-12-07T01:15:41;5.90;99.90
17992;DHT22;9121;50.926;5.340;2022-12-07T01:18:08;5.90;99.90
17992;DHT22;9121;50.926;5.340;2022-12-07T01:20:35;5.90;99.90
17992;DHT22;9121;50.926;5.340;2022-12-07T01:23:04;5.90;99.90
17992;DHT22;9121;50.926;5.340;2022-12-07T01:25:32;5.90;99.90
17992;DHT22;9121;50.926;5.340;2022-12-07T01:27:58;5.90;99.90
17992;DHT22;9121;50.926;5.340;2022-12-07T01:30:25;5.90;99.90
17992;DHT22;9121;50.926;5.340;2022-12-07T01:32:52;5.90;99.90
17992;DHT22;9121;50.926;5.340;2022-12-07T01:35:19;5.90;99.90
17992;DHT22;9121;50.926;5.340;2022-12-07T01:37:46;5.90;99.90
17992;DHT22;9121;50.926;5.340;2022-12-07T01:40:14;6.00;99.90
17992;DHT22;9121;50.926;5.340;2022-12-07T01:42:41;6.00;99.90
17992;DHT22;9121;50.926;5.340;2022-12-07T01:48:10;6.10;99.90
17992;DHT22;9121;50.926;5.340;2022-12-07T01:50:38;6.00;99.90
17992;DHT22;9121;50.926;5.340;2022-12-07T01:53:09;6.10;99.90
17992;DHT22;9121;50.926;5.340;2022-12-07T01:55:40;6.10;99.90
17992;DHT22;9121;50.926;5.340;2022-12-07T01:58:09;6.00;99.90
17992;DHT22;9121;50.926;5.340;2022-12-07T02:00:37;6.00;99.90
17992;DHT22;9121;50.926;5.340;2022-12-07T02:03:06;6.00;99.90
17992;DHT22;9121;50.926;5.340;2022-12-07T02:05:37;6.00;99.90
17992;DHT22;9121;50.926;5.340;2022-12-07T02:08:05;6.00;99.90
17992;DHT22;9121;50.926;5.340;2022-12-07T02:10:32;5.90;99.90
17992;DHT22;9121;50.926;5.340;2022-12-07T02:13:03;5.90;99.90
17992;DHT22;9121;50.926;5.340;2022-12-07T02:15:38;5.90;99.90
17992;DHT22;9121;50.926;5.340;2022-12-07T02:18:15;5.80;99.90
17992;DHT22;9121;50.926;5.340;2022-12-07T02:20:50;5.90;99.90
17992;DHT22;9121;50.926;5.340;2022-12-07T02:23:45;5.80;99.90
17992;DHT22;9121;50.926;5.340;2022-12-07T02:29:24;5.80;99.90
17992;DHT22;9121;50.926;5.340;2022-12-07T02:31:59;5.80;99.90
17992;DHT22;9121;50.926;5.340;2022-12-07T02:34:34;5.80;99.90
17992;DHT22;9121;50.926;5.340;2022-12-07T02:37:09;5.80;99.90
17992;DHT22;9121;50.926;5.340;2022-12-07T02:39:41;5.90;99.90
17992;DHT22;9121;50.926;5.340;2022-12-07T02:42:13;5.90;99.90
17992;DHT22;9121;50.926;5.340;2022-12-07T02:44:44;5.90;99.90
17992;DHT22;9121;50.926;5.340;2022-12-07T02:47:14;5.90;99.90
17992;DHT22;9121;50.926;5.340;2022-12-07T02:49:43;6.00;99.90
17992;DHT22;9121;50.926;5.340;2022-12-07T02:52:10;5.90;99.90
17992;DHT22;9121;50.926;5.340;2022-12-07T02:54:37;5.90;99.90
17992;DHT22;9121;50.926;5.340;2022-12-07T02:57:18;5.90;99.90
17992;DHT22;9121;50.926;5.340;2022-12-07T03:00:00;5.90;99.90
17992;DHT22;9121;50.926;5.340;2022-12-07T03:02:36;5.90;99.90
17992;DHT22;9121;50.926;5.340;2022-12-07T03:05:20;5.90;99.90
17992;DHT22;9121;50.926;5.340;2022-12-07T03:07:54;6.10;99.90
17992;DHT22;9121;50.926;5.340;2022-12-07T03:10:27;6.10;99.90
17992;DHT22;9121;50.926;5.340;2022-12-07T03:13:03;6.00;99.90
17992;DHT22;9121;50.926;5.340;2022-12-07T03:15:39;5.90;99.90
17992;DHT22;9121;50.926;5.340;2022-12-07T03:18:07;5.90;99.90
17992;DHT22;9121;50.926;5.340;2022-12-07T03:20:37;5.90;99.90
17992;DHT22;9121;50.926;5.340;2022-12-07T03:23:06;6.00;99.90
17992;DHT22;9121;50.926;5.340;2022-12-07T03:25:36;5.80;99.90
17992;DHT22;9121;50.926;5.340;2022-12-07T03:28:07;5.80;99.90
17992;DHT22;9121;50.926;5.340;2022-12-07T03:30:40;5.90;99.90
17992;DHT22;9121;50.926;5.340;2022-12-07T03:33:12;5.90;99.90
17992;DHT22;9121;50.926;5.340;2022-12-07T03:35:43;5.80;99.90
17992;DHT22;9121;50.926;5.340;2022-12-07T03:38:17;5.90;99.90
17992;DHT22;9121;50.926;5.340;2022-12-07T03:40:48;5.90;99.90
17992;DHT22;9121;50.926;5.340;2022-12-07T03:43:17;5.90;99.90
17992;DHT22;9121;50.926;5.340;2022-12-07T03:45:52;6.00;99.90
17992;DHT22;9121;50.926;5.340;2022-12-07T03:48:24;6.00;99.90
17992;DHT22;9121;50.926;5.340;2022-12-07T03:50:55;6.00;99.90
17992;DHT22;9121;50.926;5.340;2022-12-07T03:53:31;6.00;99.90
17992;DHT22;9121;50.926;5.340;2022-12-07T03:56:01;6.00;99.90
17992;DHT22;9121;50.926;5.340;2022-12-07T03:58:30;6.00;99.90
17992;DHT22;9121;50.926;5.340;2022-12-07T04:00:59;6.00;99.90
17992;DHT22;9121;50.926;5.340;2022-12-07T04:03:26;5.90;99.90
17992;DHT22;9121;50.926;5.340;2022-12-07T04:05:53;6.00;99.90
17992;DHT22;9121;50.926;5.340;2022-12-07T04:08:20;5.90;99.90
17992;DHT22;9121;50.926;5.340;2022-12-07T04:10:47;6.00;99.90
17992;DHT22;9121;50.926;5.340;2022-12-07T04:13:14;5.90;99.90
17992;DHT22;9121;50.926;5.340;2022-12-07T04:15:41;5.80;99.90
17992;DHT22;9121;50.926;5.340;2022-12-07T04:18:09;5.80;99.90
17992;DHT22;9121;50.926;5.340;2022-12-07T04:20:36;5.80;99.90
17992;DHT22;9121;50.926;5.340;2022-12-07T04:23:03;5.80;99.90
17992;DHT22;9121;50.926;5.340;2022-12-07T04:25:30;5.70;99.90
17992;DHT22;9121;50.926;5.340;2022-12-07T04:27:57;5.60;99.90
17992;DHT22;9121;50.926;5.340;2022-12-07T04:30:24;5.60;99.90
17992;DHT22;9121;50.926;5.340;2022-12-07T04:32:51;5.60;99.90
17992;DHT22;9121;50.926;5.340;2022-12-07T04:35:19;5.40;99.90
17992;DHT22;9121;50.926;5.340;2022-12-07T04:37:46;5.40;99.90
17992;DHT22;9121;50.926;5.340;2022-12-07T04:40:13;5.40;99.90
17992;DHT22;9121;50.926;5.340;2022-12-07T04:42:40;5.40;99.90
17992;DHT22;9121;50.926;5.340;2022-12-07T04:45:08;5.40;99.90
17992;DHT22;9121;50.926;5.340;2022-12-07T04:47:35;5.30;99.90
17992;DHT22;9121;50.926;5.340;2022-12-07T04:50:02;5.40;99.90
17992;DHT22;9121;50.926;5.340;2022-12-07T04:52:30;5.50;99.90
17992;DHT22;9121;50.926;5.340;2022-12-07T04:54:57;5.60;99.90
17992;DHT22;9121;50.926;5.340;2022-12-07T04:57:24;5.60;99.90
17992;DHT22;9121;50.926;5.340;2022-12-07T04:59:51;5.70;99.90
17992;DHT22;9121;50.926;5.340;2022-12-07T05:02:18;5.70;99.90
17992;DHT22;9121;50.926;5.340;2022-12-07T05:04:45;5.60;99.90
17992;DHT22;9121;50.926;5.340;2022-12-07T05:07:12;5.50;99.90
17992;DHT22;9121;50.926;5.340;2022-12-07T05:09:40;5.50;99.90
17992;DHT22;9121;50.926;5.340;2022-12-07T05:12:07;5.40;99.90
17992;DHT22;9121;50.926;5.340;2022-12-07T05:14:34;5.30;99.90
17992;DHT22;9121;50.926;5.340;2022-12-07T05:17:01;5.20;99.90
17992;DHT22;9121;50.926;5.340;2022-12-07T05:19:28;5.30;99.90
17992;DHT22;9121;50.926;5.340;2022-12-07T05:21:55;5.30;99.90
17992;DHT22;9121;50.926;5.340;2022-12-07T05:24:22;5.20;99.90
17992;DHT22;9121;50.926;5.340;2022-12-07T05:26:50;5.20;99.90
17992;DHT22;9121;50.926;5.340;2022-12-07T05:29:17;5.10;99.90
17992;DHT22;9121;50.926;5.340;2022-12-07T05:31:45;5.10;99.90
17992;DHT22;9121;50.926;5.340;2022-12-07T05:34:12;5.20;99.90
17992;DHT22;9121;50.926;5.340;2022-12-07T05:36:39;5.20;99.90
17992;DHT22;9121;50.926;5.340;2022-12-07T05:39:06;5.20;99.90
17992;DHT22;9121;50.926;5.340;2022-12-07T05:41:33;5.20;99.90
17992;DHT22;9121;50.926;5.340;2022-12-07T05:44:19;5.20;99.90
17992;DHT22;9121;50.926;5.340;2022-12-07T05:46:46;5.30;99.90
17992;DHT22;9121;50.926;5.340;2022-12-07T05:49:13;5.30;99.90
17992;DHT22;9121;50.926;5.340;2022-12-07T05:51:41;5.30;99.90
17992;DHT22;9121;50.926;5.340;2022-12-07T05:54:08;5.30;99.90
17992;DHT22;9121;50.926;5.340;2022-12-07T05:56:35;5.20;99.90
17992;DHT22;9121;50.926;5.340;2022-12-07T05:59:02;5.20;99.90
17992;DHT22;9121;50.926;5.340;2022-12-07T06:01:48;5.20;99.90
17992;DHT22;9121;50.926;5.340;2022-12-07T06:04:14;5.20;99.90
17992;DHT22;9121;50.926;5.340;2022-12-07T06:06:41;5.30;99.90
17992;DHT22;9121;50.926;5.340;2022-12-07T06:09:09;5.30;99.90
17992;DHT22;9121;50.926;5.340;2022-12-07T06:11:37;5.30;99.90
17992;DHT22;9121;50.926;5.340;2022-12-07T06:14:21;5.30;99.90
17992;DHT22;9121;50.926;5.340;2022-12-07T06:16:49;5.30;99.90
17992;DHT22;9121;50.926;5.340;2022-12-07T06:19:16;5.30;99.90
17992;DHT22;9121;50.926;5.340;2022-12-07T06:21:43;5.30;99.90
17992;DHT22;9121;50.926;5.340;2022-12-07T06:24:11;5.20;99.90
17992;DHT22;9121;50.926;5.340;2022-12-07T06:26:39;5.30;99.90
17992;DHT22;9121;50.926;5.340;2022-12-07T06:29:06;5.30;99.90
17992;DHT22;9121;50.926;5.340;2022-12-07T06:31:33;5.30;99.90
17992;DHT22;9121;50.926;5.340;2022-12-07T06:34:04;5.30;99.90
17992;DHT22;9121;50.926;5.340;2022-12-07T06:36:32;5.50;99.90
17992;DHT22;9121;50.926;5.340;2022-12-07T06:38:59;5.40;99.90
17992;DHT22;9121;50.926;5.340;2022-12-07T06:41:26;5.40;99.90
17992;DHT22;9121;50.926;5.340;2022-12-07T06:43:53;5.40;99.90
17992;DHT22;9121;50.926;5.340;2022-12-07T06:46:19;5.40;99.90
17992;DHT22;9121;50.926;5.340;2022-12-07T06:48:47;5.40;99.90
17992;DHT22;9121;50.926;5.340;2022-12-07T06:51:15;5.40;99.90
17992;DHT22;9121;50.926;5.340;2022-12-07T06:53:42;5.40;99.90
17992;DHT22;9121;50.926;5.340;2022-12-07T06:56:09;5.40;99.90
17992;DHT22;9121;50.926;5.340;2022-12-07T06:58:36;5.30;99.90
17992;DHT22;9121;50.926;5.340;2022-12-07T07:01:07;5.40;99.90
17992;DHT22;9121;50.926;5.340;2022-12-07T07:03:34;5.40;99.90
17992;DHT22;9121;50.926;5.340;2022-12-07T07:06:01;5.40;99.90
17992;DHT22;9121;50.926;5.340;2022-12-07T07:08:30;5.40;99.90
17992;DHT22;9121;50.926;5.340;2022-12-07T07:10:57;5.40;99.90
17992;DHT22;9121;50.926;5.340;2022-12-07T07:13:24;5.40;99.90
17992;DHT22;9121;50.926;5.340;2022-12-07T07:15:51;5.40;99.90
17992;DHT22;9121;50.926;5.340;2022-12-07T07:18:18;5.30;99.90
17992;DHT22;9121;50.926;5.340;2022-12-07T07:20:45;5.40;99.90
17992;DHT22;9121;50.926;5.340;2022-12-07T07:23:13;5.30;99.90
17992;DHT22;9121;50.926;5.340;2022-12-07T07:25:41;5.30;99.90
17992;DHT22;9121;50.926;5.340;2022-12-07T07:28:08;5.20;99.90
17992;DHT22;9121;50.926;5.340;2022-12-07T07:30:35;5.20;99.90
17992;DHT22;9121;50.926;5.340;2022-12-07T07:33:03;5.10;99.90
17992;DHT22;9121;50.926;5.340;2022-12-07T07:35:32;5.10;99.90
17992;DHT22;9121;50.926;5.340;2022-12-07T07:38:00;5.10;99.90
17992;DHT22;9121;50.926;5.340;2022-12-07T07:40:27;5.10;99.90
17992;DHT22;9121;50.926;5.340;2022-12-07T07:42:57;5.10;99.90
17992;DHT22;9121;50.926;5.340;2022-12-07T07:45:26;5.00;99.90
17992;DHT22;9121;50.926;5.340;2022-12-07T07:47:53;4.90;99.90
17992;DHT22;9121;50.926;5.340;2022-12-07T07:50:21;4.90;99.90
17992;DHT22;9121;50.926;5.340;2022-12-07T07:52:48;4.90;99.90
17992;DHT22;9121;50.926;5.340;2022-12-07T07:55:15;5.00;99.90
17992;DHT22;9121;50.926;5.340;2022-12-07T07:57:42;4.90;99.90
17992;DHT22;9121;50.926;5.340;2022-12-07T08:00:13;4.90;99.90
17992;DHT22;9121;50.926;5.340;2022-12-07T08:02:41;4.90;99.90
17992;DHT22;9121;50.926;5.340;2022-12-07T08:05:09;4.90;99.90
17992;DHT22;9121;50.926;5.340;2022-12-07T08:07:36;4.90;99.90
17992;DHT22;9121;50.926;5.340;2022-12-07T08:10:04;4.90;99.90
17992;DHT22;9121;50.926;5.340;2022-12-07T08:12:33;4.80;99.90
17992;DHT22;9121;50.926;5.340;2022-12-07T08:15:02;4.90;99.90
17992;DHT22;9121;50.926;5.340;2022-12-07T08:17:30;4.90;99.90
17992;DHT22;9121;50.926;5.340;2022-12-07T08:19:57;4.80;99.90
17992;DHT22;9121;50.926;5.340;2022-12-07T08:22:24;4.80;99.90
17992;DHT22;9121;50.926;5.340;2022-12-07T08:24:51;4.80;99.90
17992;DHT22;9121;50.926;5.340;2022-12-07T08:27:18;4.90;99.90
17992;DHT22;9121;50.926;5.340;2022-12-07T08:29:45;4.90;99.90
17992;DHT22;9121;50.926;5.340;2022-12-07T08:32:12;4.90;99.90
17992;DHT22;9121;50.926;5.340;2022-12-07T08:34:40;5.00;99.90
17992;DHT22;9121;50.926;5.340;2022-12-07T08:37:07;5.00;99.90
17992;DHT22;9121;50.926;5.340;2022-12-07T08:39:34;5.00;99.90
17992;DHT22;9121;50.926;5.340;2022-12-07T08:42:01;5.00;99.90
17992;DHT22;9121;50.926;5.340;2022-12-07T08:44:28;5.10;99.90
17992;DHT22;9121;50.926;5.340;2022-12-07T08:46:58;5.10;99.90
17992;DHT22;9121;50.926;5.340;2022-12-07T08:49:27;5.20;99.90
17992;DHT22;9121;50.926;5.340;2022-12-07T08:51:59;5.30;99.90
17992;DHT22;9121;50.926;5.340;2022-12-07T08:54:26;5.30;99.90
17992;DHT22;9121;50.926;5.340;2022-12-07T08:56:55;5.40;99.90
17992;DHT22;9121;50.926;5.340;2022-12-07T08:59:23;5.40;99.90
17992;DHT22;9121;50.926;5.340;2022-12-07T09:01:50;5.50;99.90
17992;DHT22;9121;50.926;5.340;2022-12-07T09:04:17;5.50;99.90
17992;DHT22;9121;50.926;5.340;2022-12-07T09:06:44;5.50;99.90
17992;DHT22;9121;50.926;5.340;2022-12-07T09:09:13;5.50;99.90
17992;DHT22;9121;50.926;5.340;2022-12-07T09:11:40;5.60;99.90
17992;DHT22;9121;50.926;5.340;2022-12-07T09:14:08;5.60;99.90
17992;DHT22;9121;50.926;5.340;2022-12-07T09:16:35;5.60;99.90
17992;DHT22;9121;50.926;5.340;2022-12-07T09:19:02;5.70;99.90
17992;DHT22;9121;50.926;5.340;2022-12-07T09:21:29;5.80;99.90
17992;DHT22;9121;50.926;5.340;2022-12-07T09:23:56;5.90;99.90
17992;DHT22;9121;50.926;5.340;2022-12-07T09:26:24;6.00;99.90
17992;DHT22;9121;50.926;5.340;2022-12-07T09:28:51;6.00;99.90
17992;DHT22;9121;50.926;5.340;2022-12-07T09:31:18;6.20;99.90
17992;DHT22;9121;50.926;5.340;2022-12-07T09:33:45;6.20;99.90
17992;DHT22;9121;50.926;5.340;2022-12-07T09:36:13;6.40;99.90
17992;DHT22;9121;50.926;5.340;2022-12-07T09:38:40;6.40;99.90
17992;DHT22;9121;50.926;5.340;2022-12-07T09:41:07;6.40;99.90
17992;DHT22;9121;50.926;5.340;2022-12-07T09:43:36;6.40;99.90
17992;DHT22;9121;50.926;5.340;2022-12-07T09:46:05;6.40;99.90
17992;DHT22;9121;50.926;5.340;2022-12-07T09:48:35;6.40;99.90
17992;DHT22;9121;50.926;5.340;2022-12-07T09:51:12;6.50;99.90
17992;DHT22;9121;50.926;5.340;2022-12-07T09:53:41;6.50;99.90
17992;DHT22;9121;50.926;5.340;2022-12-07T09:56:11;6.50;99.90
17992;DHT22;9121;50.926;5.340;2022-12-07T09:58:41;6.50;99.90
17992;DHT22;9121;50.926;5.340;2022-12-07T10:01:13;6.50;99.90
17992;DHT22;9121;50.926;5.340;2022-12-07T10:03:45;6.50;99.90
17992;DHT22;9121;50.926;5.340;2022-12-07T10:06:14;6.40;99.90
17992;DHT22;9121;50.926;5.340;2022-12-07T10:08:41;6.30;99.90
17992;DHT22;9121;50.926;5.340;2022-12-07T10:11:10;6.30;99.90
17992;DHT22;9121;50.926;5.340;2022-12-07T10:13:40;6.40;99.90
17992;DHT22;9121;50.926;5.340;2022-12-07T10:16:29;6.50;99.90
17992;DHT22;9121;50.926;5.340;2022-12-07T10:19:18;6.70;99.90
17992;DHT22;9121;50.926;5.340;2022-12-07T10:22:00;6.70;99.90
17992;DHT22;9121;50.926;5.340;2022-12-07T10:24:27;6.90;99.90
17992;DHT22;9121;50.926;5.340;2022-12-07T10:26:55;7.00;99.90
17992;DHT22;9121;50.926;5.340;2022-12-07T10:29:24;7.10;99.90
17992;DHT22;9121;50.926;5.340;2022-12-07T10:31:56;7.10;99.90
17992;DHT22;9121;50.926;5.340;2022-12-07T10:34:25;7.10;99.90
17992;DHT22;9121;50.926;5.340;2022-12-07T10:36:54;7.10;99.90
17992;DHT22;9121;50.926;5.340;2022-12-07T10:39:41;7.20;99.90
17992;DHT22;9121;50.926;5.340;2022-12-07T10:42:16;7.20;99.90
17992;DHT22;9121;50.926;5.340;2022-12-07T10:44:46;7.10;99.90
17992;DHT22;9121;50.926;5.340;2022-12-07T10:47:31;7.10;99.90
17992;DHT22;9121;50.926;5.340;2022-12-07T10:50:19;7.10;99.90
17992;DHT22;9121;50.926;5.340;2022-12-07T10:53:03;7.10;99.90
17992;DHT22;9121;50.926;5.340;2022-12-07T10:55:45;7.20;99.90
17992;DHT22;9121;50.926;5.340;2022-12-07T10:58:31;7.20;99.90
17992;DHT22;9121;50.926;5.340;2022-12-07T11:01:13;7.20;99.90
17992;DHT22;9121;50.926;5.340;2022-12-07T11:04:14;7.30;99.90
17992;DHT22;9121;50.926;5.340;2022-12-07T11:06:48;7.30;99.90
17992;DHT22;9121;50.926;5.340;2022-12-07T11:09:40;7.30;99.90
17992;DHT22;9121;50.926;5.340;2022-12-07T11:12:11;7.40;99.90
17992;DHT22;9121;50.926;5.340;2022-12-07T11:14:50;7.40;99.90
17992;DHT22;9121;50.926;5.340;2022-12-07T11:17:28;7.30;99.90
17992;DHT22;9121;50.926;5.340;2022-12-07T11:20:05;7.40;99.90
17992;DHT22;9121;50.926;5.340;2022-12-07T11:22:43;7.30;99.90
17992;DHT22;9121;50.926;5.340;2022-12-07T11:25:23;7.40;99.90
17992;DHT22;9121;50.926;5.340;2022-12-07T11:28:04;7.30;99.90
17992;DHT22;9121;50.926;5.340;2022-12-07T11:30:38;7.40;99.90
17992;DHT22;9121;50.926;5.340;2022-12-07T11:33:19;7.50;99.90
17992;DHT22;9121;50.926;5.340;2022-12-07T11:35:55;7.60;99.90
17992;DHT22;9121;50.926;5.340;2022-12-07T11:38:29;7.70;99.90
17992;DHT22;9121;50.926;5.340;2022-12-07T11:41:01;7.70;99.90
17992;DHT22;9121;50.926;5.340;2022-12-07T11:43:49;7.70;99.90
17992;DHT22;9121;50.926;5.340;2022-12-07T11:46:17;7.70;99.90
17992;DHT22;9121;50.926;5.340;2022-12-07T11:48:49;7.70;99.90
17992;DHT22;9121;50.926;5.340;2022-12-07T11:51:20;7.80;99.90
17992;DHT22;9121;50.926;5.340;2022-12-07T11:53:51;7.90;99.90
17992;DHT22;9121;50.926;5.340;2022-12-07T11:56:20;7.90;99.90
17992;DHT22;9121;50.926;5.340;2022-12-07T11:58:50;7.90;99.90
17992;DHT22;9121;50.926;5.340;2022-12-07T12:01:31;7.80;99.90
17992;DHT22;9121;50.926;5.340;2022-12-07T12:04:30;7.70;99.90
17992;DHT22;9121;50.926;5.340;2022-12-07T12:06:59;7.80;99.90
17992;DHT22;9121;50.926;5.340;2022-12-07T12:09:30;7.80;99.90
17992;DHT22;9121;50.926;5.340;2022-12-07T12:12:36;7.80;99.90
17992;DHT22;9121;50.926;5.340;2022-12-07T12:15:19;7.90;99.90
17992;DHT22;9121;50.926;5.340;2022-12-07T12:18:00;8.00;99.90
17992;DHT22;9121;50.926;5.340;2022-12-07T12:20:37;8.20;99.90
17992;DHT22;9121;50.926;5.340;2022-12-07T12:23:09;8.20;99.90
17992;DHT22;9121;50.926;5.340;2022-12-07T12:25:42;8.30;99.90
17992;DHT22;9121;50.926;5.340;2022-12-07T12:28:21;8.20;99.90
17992;DHT22;9121;50.926;5.340;2022-12-07T12:31:05;8.30;99.90
17992;DHT22;9121;50.926;5.340;2022-12-07T12:33:33;8.40;99.90
17992;DHT22;9121;50.926;5.340;2022-12-07T12:36:21;8.30;99.90
17992;DHT22;9121;50.926;5.340;2022-12-07T12:38:50;8.20;99.90
17992;DHT22;9121;50.926;5.340;2022-12-07T12:41:51;8.10;99.90
17992;DHT22;9121;50.926;5.340;2022-12-07T12:44:41;8.20;99.90
17992;DHT22;9121;50.926;5.340;2022-12-07T12:50:28;8.00;99.90
17992;DHT22;9121;50.926;5.340;2022-12-07T12:53:14;8.10;99.90
17992;DHT22;9121;50.926;5.340;2022-12-07T12:56:06;8.20;99.90
17992;DHT22;9121;50.926;5.340;2022-12-07T12:58:42;8.20;99.90
17992;DHT22;9121;50.926;5.340;2022-12-07T13:04:29;8.00;99.90
17992;DHT22;9121;50.926;5.340;2022-12-07T13:07:00;8.10;99.90
17992;DHT22;9121;50.926;5.340;2022-12-07T13:09:29;8.10;99.90
17992;DHT22;9121;50.926;5.340;2022-12-07T13:12:03;8.20;99.90
17992;DHT22;9121;50.926;5.340;2022-12-07T13:14:56;8.20;99.90
17992;DHT22;9121;50.926;5.340;2022-12-07T13:17:58;8.00;99.90
17992;DHT22;9121;50.926;5.340;2022-12-07T13:20:50;8.00;99.90
17992;DHT22;9121;50.926;5.340;2022-12-07T13:23:26;7.80;99.90
17992;DHT22;9121;50.926;5.340;2022-12-07T13:26:13;7.80;99.90
17992;DHT22;9121;50.926;5.340;2022-12-07T13:28:43;7.80;99.90
17992;DHT22;9121;50.926;5.340;2022-12-07T13:31:16;7.90;99.90
17992;DHT22;9121;50.926;5.340;2022-12-07T13:33:46;7.90;99.90
17992;DHT22;9121;50.926;5.340;2022-12-07T13:36:22;7.80;99.90
17992;DHT22;9121;50.926;5.340;2022-12-07T13:38:52;7.80;99.90
17992;DHT22;9121;50.926;5.340;2022-12-07T13:41:21;7.90;99.90
17992;DHT22;9121;50.926;5.340;2022-12-07T13:43:51;7.80;99.90
17992;DHT22;9121;50.926;5.340;2022-12-07T13:46:24;7.80;99.90
17992;DHT22;9121;50.926;5.340;2022-12-07T13:48:51;7.80;99.90
17992;DHT22;9121;50.926;5.340;2022-12-07T13:51:22;7.90;99.90
17992;DHT22;9121;50.926;5.340;2022-12-07T13:53:51;8.00;99.90
17992;DHT22;9121;50.926;5.340;2022-12-07T13:56:22;8.00;99.90
17992;DHT22;9121;50.926;5.340;2022-12-07T13:58:52;8.10;99.90
17992;DHT22;9121;50.926;5.340;2022-12-07T14:01:19;8.00;99.90
17992;DHT22;9121;50.926;5.340;2022-12-07T14:03:46;8.00;99.90
17992;DHT22;9121;50.926;5.340;2022-12-07T14:06:17;8.10;99.90
17992;DHT22;9121;50.926;5.340;2022-12-07T14:08:44;8.00;99.90
17992;DHT22;9121;50.926;5.340;2022-12-07T14:11:16;8.00;99.90
17992;DHT22;9121;50.926;5.340;2022-12-07T14:14:01;7.90;99.90
17992;DHT22;9121;50.926;5.340;2022-12-07T14:16:30;7.80;99.90
17992;DHT22;9121;50.926;5.340;2022-12-07T14:18:59;7.80;99.90
17992;DHT22;9121;50.926;5.340;2022-12-07T14:21:27;7.80;99.90
17992;DHT22;9121;50.926;5.340;2022-12-07T14:24:15;7.70;99.90
17992;DHT22;9121;50.926;5.340;2022-12-07T14:26:43;7.80;99.90
17992;DHT22;9121;50.926;5.340;2022-12-07T14:29:29;7.90;99.90
17992;DHT22;9121;50.926;5.340;2022-12-07T14:31:57;7.90;99.90
17992;DHT22;9121;50.926;5.340;2022-12-07T14:34:25;7.70;99.90
17992;DHT22;9121;50.926;5.340;2022-12-07T14:36:52;7.70;99.90
17992;DHT22;9121;50.926;5.340;2022-12-07T14:39:19;7.70;99.90
17992;DHT22;9121;50.926;5.340;2022-12-07T14:41:46;7.60;99.90
17992;DHT22;9121;50.926;5.340;2022-12-07T14:44:22;7.60;99.90
17992;DHT22;9121;50.926;5.340;2022-12-07T14:46:50;7.60;99.90
17992;DHT22;9121;50.926;5.340;2022-12-07T14:49:17;7.70;99.90
17992;DHT22;9121;50.926;5.340;2022-12-07T14:51:46;7.70;99.90
17992;DHT22;9121;50.926;5.340;2022-12-07T14:54:16;7.70;99.90
17992;DHT22;9121;50.926;5.340;2022-12-07T14:56:44;7.70;99.90
17992;DHT22;9121;50.926;5.340;2022-12-07T14:59:14;7.60;99.90
17992;DHT22;9121;50.926;5.340;2022-12-07T15:01:43;7.60;99.90
17992;DHT22;9121;50.926;5.340;2022-12-07T15:04:10;7.50;99.90
17992;DHT22;9121;50.926;5.340;2022-12-07T15:06:37;7.50;99.90
17992;DHT22;9121;50.926;5.340;2022-12-07T15:09:04;7.50;99.90
17992;DHT22;9121;50.926;5.340;2022-12-07T15:11:31;7.40;99.90
17992;DHT22;9121;50.926;5.340;2022-12-07T15:13:58;7.30;99.90
17992;DHT22;9121;50.926;5.340;2022-12-07T15:16:37;7.30;99.90
17992;DHT22;9121;50.926;5.340;2022-12-07T15:19:13;7.30;99.90
17992;DHT22;9121;50.926;5.340;2022-12-07T15:21:41;7.30;99.90
17992;DHT22;9121;50.926;5.340;2022-12-07T15:24:09;7.30;99.90
17992;DHT22;9121;50.926;5.340;2022-12-07T15:26:37;7.30;99.90
17992;DHT22;9121;50.926;5.340;2022-12-07T15:29:04;7.30;99.90
17992;DHT22;9121;50.926;5.340;2022-12-07T15:31:32;7.30;99.90
17992;DHT22;9121;50.926;5.340;2022-12-07T15:33:59;7.20;99.90
17992;DHT22;9121;50.926;5.340;2022-12-07T15:36:30;7.20;99.90
17992;DHT22;9121;50.926;5.340;2022-12-07T15:38:57;7.20;99.90
17992;DHT22;9121;50.926;5.340;2022-12-07T15:41:24;7.20;99.90
17992;DHT22;9121;50.926;5.340;2022-12-07T15:43:51;7.20;99.90
17992;DHT22;9121;50.926;5.340;2022-12-07T15:46:37;7.20;99.90
17992;DHT22;9121;50.926;5.340;2022-12-07T15:49:08;7.20;99.90
17992;DHT22;9121;50.926;5.340;2022-12-07T15:51:37;7.10;99.90
17992;DHT22;9121;50.926;5.340;2022-12-07T15:54:04;7.10;99.90
17992;DHT22;9121;50.926;5.340;2022-12-07T15:56:31;7.10;99.90
17992;DHT22;9121;50.926;5.340;2022-12-07T15:58:58;7.00;99.90
17992;DHT22;9121;50.926;5.340;2022-12-07T16:01:25;6.90;99.90
17992;DHT22;9121;50.926;5.340;2022-12-07T16:03:52;6.90;99.90
17992;DHT22;9121;50.926;5.340;2022-12-07T16:06:19;6.80;99.90
17992;DHT22;9121;50.926;5.340;2022-12-07T16:08:48;6.90;99.90
17992;DHT22;9121;50.926;5.340;2022-12-07T16:11:15;6.90;99.90
17992;DHT22;9121;50.926;5.340;2022-12-07T16:13:42;6.90;99.90
17992;DHT22;9121;50.926;5.340;2022-12-07T16:16:11;6.80;99.90
17992;DHT22;9121;50.926;5.340;2022-12-07T16:18:38;6.80;99.90
17992;DHT22;9121;50.926;5.340;2022-12-07T16:21:05;6.80;99.90
17992;DHT22;9121;50.926;5.340;2022-12-07T16:23:33;6.80;99.90
17992;DHT22;9121;50.926;5.340;2022-12-07T16:26:10;6.80;99.90
17992;DHT22;9121;50.926;5.340;2022-12-07T16:28:37;6.70;99.90
17992;DHT22;9121;50.926;5.340;2022-12-07T16:31:06;6.70;99.90
17992;DHT22;9121;50.926;5.340;2022-12-07T16:33:36;6.70;99.90
17992;DHT22;9121;50.926;5.340;2022-12-07T16:36:04;6.70;99.90
17992;DHT22;9121;50.926;5.340;2022-12-07T16:38:31;6.70;99.90